createdAt,value
2019-01-02T00:00:41.653Z,4.07
2019-01-02T00:05:32.562Z,4.30
2019-01-02T00:10:23.497Z,4.57
2019-01-02T00:15:14.394Z,4.20
2019-01-02T00:20:05.276Z,5.83
2019-01-02T00:24:57.090Z,5.20
2019-01-02T00:29:48.114Z,5.50
2019-01-02T00:34:39.025Z,6.30
2019-01-02T00:39:29.934Z,4.70
2019-01-02T00:44:20.848Z,4.53
2019-01-02T00:49:11.766Z,4.73
2019-01-02T00:54:02.663Z,4.53
2019-01-02T00:58:53.554Z,4.03
2019-01-02T01:03:45.266Z,3.13
2019-01-02T01:08:36.306Z,5.80
2019-01-02T01:13:27.285Z,6.00
2019-01-02T01:18:18.293Z,5.77
2019-01-02T01:23:09.225Z,4.90
2019-01-02T01:28:00.240Z,4.47
2019-01-02T01:32:51.141Z,3.63
2019-01-02T01:37:42.085Z,4.23
2019-01-02T01:42:33.013Z,3.73
2019-01-02T01:47:23.929Z,4.63
2019-01-02T01:52:14.843Z,4.17
2019-01-02T01:57:05.769Z,4.22
2019-01-02T02:01:57.529Z,3.50
2019-01-02T02:06:49.182Z,4.20
2019-01-02T02:11:40.821Z,4.43
2019-01-02T02:16:31.733Z,4.33
2019-01-02T02:21:23.392Z,3.10
2019-01-02T02:26:14.352Z,3.90
2019-01-02T02:31:05.361Z,4.13
2019-01-02T02:35:56.276Z,3.97
2019-01-02T02:40:47.201Z,5.03
2019-01-02T02:45:38.152Z,3.60
2019-01-02T02:50:29.853Z,3.83
2019-01-02T02:55:20.773Z,3.23
2019-01-02T03:00:12.611Z,3.47
2019-01-02T03:05:03.547Z,3.23
2019-01-02T03:09:55.237Z,3.20
2019-01-02T03:14:46.166Z,3.03
2019-01-02T03:19:37.126Z,3.77
2019-01-02T03:24:28.810Z,3.13
2019-01-02T03:29:19.750Z,4.10
2019-01-02T03:34:10.687Z,3.10
2019-01-02T03:39:01.625Z,3.20
2019-01-02T03:43:52.525Z,2.10
2019-01-02T03:48:43.454Z,3.30
2019-01-02T03:53:34.360Z,2.30
2019-01-02T03:58:25.263Z,2.20
2019-01-02T04:03:16.167Z,2.67
2019-01-02T04:08:07.056Z,2.13
2019-01-02T04:12:58.757Z,2.20
2019-01-02T04:17:49.673Z,1.60
2019-01-02T04:22:40.561Z,2.23
2019-01-02T04:27:31.477Z,1.93
2019-01-02T04:32:22.397Z,2.00
2019-01-02T04:37:13.304Z,1.57
2019-01-02T04:42:04.220Z,1.40
2019-01-02T04:46:55.108Z,1.77
2019-01-02T04:51:46.012Z,1.70
2019-01-02T04:56:36.927Z,1.77
2019-01-02T05:01:29.316Z,1.80
2019-01-02T05:06:20.968Z,2.73
2019-01-02T05:11:11.858Z,2.23
2019-01-02T05:16:02.753Z,1.40
2019-01-02T05:20:53.669Z,1.40
2019-01-02T05:25:44.581Z,1.67
2019-01-02T05:30:35.498Z,1.50
2019-01-02T05:35:26.401Z,1.50
2019-01-02T05:40:17.290Z,1.40
2019-01-02T05:45:08.200Z,1.90
2019-01-02T05:49:59.898Z,1.57
2019-01-02T05:54:50.831Z,2.27
2019-01-02T05:59:41.725Z,2.13
2019-01-02T06:04:32.642Z,1.90
2019-01-02T06:09:23.551Z,1.93
2019-01-02T06:14:14.463Z,1.43
2019-01-02T06:19:05.374Z,2.00
2019-01-02T06:23:56.284Z,1.50
2019-01-02T06:28:47.264Z,1.90
2019-01-02T06:33:38.174Z,1.77
2019-01-02T06:38:29.115Z,1.43
2019-01-02T06:43:20.817Z,1.97
2019-01-02T06:48:11.726Z,2.07
2019-01-02T06:53:02.656Z,1.77
2019-01-02T06:57:53.572Z,1.70
2019-01-02T07:02:44.491Z,1.63
2019-01-02T07:07:35.423Z,2.20
2019-01-02T07:12:26.442Z,1.70
2019-01-02T07:17:17.349Z,2.13
2019-01-02T07:22:08.339Z,1.37
2019-01-02T07:26:59.304Z,1.60
2019-01-02T07:31:50.221Z,2.10
2019-01-02T07:36:53.733Z,1.53
2019-01-02T07:41:56.601Z,1.50
2019-01-02T07:47:04.367Z,1.50
2019-01-02T07:52:07.335Z,1.17
2019-01-02T07:57:06.478Z,1.60
2019-01-02T08:07:25.459Z,1.73
2019-01-02T08:12:20.348Z,1.47
2019-01-02T08:17:12.051Z,1.10
2019-01-02T08:22:06.505Z,1.40
2019-01-02T08:26:57.438Z,1.47
2019-01-02T08:31:51.485Z,1.00
2019-01-02T08:36:44.349Z,1.50
2019-01-02T08:41:36.106Z,1.67
2019-01-02T08:46:27.031Z,1.62
2019-01-02T08:51:21.790Z,0.97
2019-01-02T08:56:15.269Z,1.10
2019-01-02T09:01:06.950Z,1.13
2019-01-02T09:06:00.670Z,1.40
2019-01-02T09:16:15.112Z,1.45
2019-01-02T09:21:14.347Z,1.23
2019-01-02T09:26:10.241Z,1.10
2019-01-02T09:31:06.795Z,0.93
2019-01-02T09:36:01.293Z,1.20
2019-01-02T09:40:59.925Z,1.40
2019-01-02T09:46:01.095Z,1.00
2019-01-02T09:50:53.921Z,1.10
2019-01-02T10:01:13.175Z,1.70
2019-01-02T10:06:04.991Z,1.30
2019-01-02T10:16:31.472Z,1.52
2019-01-02T10:21:29.573Z,0.90
2019-01-02T10:26:25.571Z,1.03
2019-01-02T10:31:27.349Z,1.50
2019-01-02T10:41:58.384Z,1.55
2019-01-02T10:47:00.204Z,1.40
2019-01-02T10:52:05.971Z,1.30
2019-01-02T10:57:07.607Z,1.80
2019-01-02T11:02:10.400Z,1.87
2019-01-02T11:07:04.147Z,1.13
2019-01-02T11:12:07.978Z,1.50
2019-01-02T11:17:00.833Z,0.87
2019-01-02T11:21:55.772Z,0.90
2019-01-02T11:26:55.811Z,1.60
2019-01-02T11:31:49.686Z,0.97
2019-01-02T11:36:45.479Z,1.20
2019-01-02T11:41:40.111Z,1.15
2019-01-02T11:46:31.042Z,0.73
2019-01-02T11:51:22.003Z,0.90
2019-01-02T11:56:12.917Z,1.43
2019-01-02T12:01:05.301Z,0.80
2019-01-02T12:05:56.966Z,0.77
2019-01-02T12:10:47.888Z,0.83
2019-01-02T12:15:38.798Z,0.87
2019-01-02T12:20:29.697Z,1.10
2019-01-02T12:25:21.336Z,0.70
2019-01-02T12:30:13.004Z,0.90
2019-01-02T12:35:03.899Z,0.90
2019-01-02T12:39:54.882Z,0.87
2019-01-02T12:44:45.786Z,0.93
2019-01-02T12:49:36.765Z,0.80
2019-01-02T12:54:27.661Z,0.70
2019-01-02T12:59:20.109Z,0.80
2019-01-02T13:04:15.777Z,1.00
2019-01-02T13:09:15.792Z,0.90
2019-01-02T13:14:15.632Z,1.10
2019-01-02T13:19:07.441Z,1.03
2019-01-02T13:24:00.012Z,0.90
2019-01-02T13:28:50.917Z,0.80
2019-01-02T13:33:44.468Z,0.90
2019-01-02T13:38:35.515Z,1.20
2019-01-02T13:43:29.025Z,0.80
2019-01-02T13:53:42.780Z,1.03
2019-01-02T13:58:34.421Z,0.90
2019-01-02T14:03:26.075Z,1.10
2019-01-02T14:08:16.983Z,0.80
2019-01-02T14:13:07.962Z,1.03
2019-01-02T14:17:58.883Z,1.07
2019-01-02T14:22:49.791Z,1.43
2019-01-02T14:27:40.705Z,1.13
2019-01-02T14:32:31.647Z,1.10
2019-01-02T14:37:22.545Z,1.00
2019-01-02T14:42:13.476Z,1.10
2019-01-02T14:47:04.420Z,1.37
2019-01-02T14:51:56.060Z,1.20
2019-01-02T14:56:47.708Z,1.50
2019-01-02T15:01:38.612Z,1.47
2019-01-02T15:06:30.246Z,1.20
2019-01-02T15:11:21.983Z,1.30
2019-01-02T15:16:13.620Z,1.23
2019-01-02T15:21:05.275Z,0.97
2019-01-02T15:25:56.218Z,1.07
2019-01-02T15:30:47.169Z,1.50
2019-01-02T15:35:38.095Z,1.45
2019-01-02T15:40:29.101Z,1.60
2019-01-02T15:45:20.019Z,1.60
2019-01-02T15:50:10.973Z,1.20
2019-01-02T15:55:02.695Z,1.40
2019-01-02T15:59:55.095Z,1.00
2019-01-02T16:04:46.060Z,1.30
2019-01-02T16:09:37.111Z,1.10
2019-01-02T16:14:28.943Z,1.17
2019-01-02T16:19:20.649Z,1.65
2019-01-02T16:24:11.582Z,1.60
2019-01-02T16:29:02.666Z,1.37
2019-01-02T16:33:53.614Z,1.13
2019-01-02T16:38:44.537Z,1.13
2019-01-02T16:43:36.267Z,1.10
2019-01-02T16:48:27.174Z,1.07
2019-01-02T16:53:18.119Z,1.30
2019-01-02T16:58:09.155Z,1.07
2019-01-02T17:03:00.879Z,1.73
2019-01-02T17:07:51.876Z,1.13
2019-01-02T17:12:43.012Z,1.20
2019-01-02T17:17:34.029Z,1.43
2019-01-02T17:22:24.991Z,1.53
2019-01-02T17:27:15.979Z,1.60
2019-01-02T17:32:06.993Z,1.70
2019-01-02T17:36:58.332Z,1.77
2019-01-02T17:41:49.386Z,1.80
2019-01-02T17:46:40.377Z,1.53
2019-01-02T17:51:31.403Z,1.90
2019-01-02T17:56:23.037Z,1.37
2019-01-02T18:01:13.966Z,1.27
2019-01-02T18:06:10.913Z,1.20
2019-01-02T18:10:56.714Z,1.70
2019-01-02T18:15:48.721Z,1.30
2019-01-02T18:20:39.749Z,1.30
2019-01-02T18:25:30.740Z,1.40
2019-01-02T18:30:21.692Z,1.00
2019-01-02T18:35:12.603Z,1.30
2019-01-02T18:40:03.529Z,1.40
2019-01-02T18:44:54.523Z,1.00
2019-01-02T18:49:45.498Z,1.10
2019-01-02T18:54:36.610Z,1.50
2019-01-02T18:59:29.014Z,1.30
2019-01-02T19:04:19.914Z,1.10
2019-01-02T19:09:11.669Z,1.40
2019-01-02T19:14:02.693Z,1.70
2019-01-02T19:18:54.406Z,1.40
2019-01-02T19:23:46.300Z,1.30
2019-01-02T19:28:38.054Z,1.23
2019-01-02T19:33:29.065Z,1.50
2019-01-02T19:38:20.026Z,1.47
2019-01-02T19:43:11.781Z,1.20
2019-01-02T19:48:02.809Z,1.50
2019-01-02T19:52:54.476Z,1.10
2019-01-02T19:57:45.489Z,1.40
2019-01-02T20:02:36.426Z,1.50
2019-01-02T20:07:27.325Z,1.58
2019-01-02T20:12:18.323Z,1.43
2019-01-02T20:17:09.283Z,1.20
2019-01-02T20:22:00.196Z,1.10
2019-01-02T20:26:55.365Z,1.80
2019-01-02T20:31:42.852Z,1.80
2019-01-02T20:36:33.742Z,2.30
2019-01-02T20:41:24.750Z,2.60
2019-01-02T20:46:15.708Z,3.73
2019-01-02T20:51:06.629Z,3.60
2019-01-02T20:55:57.526Z,4.07
2019-01-02T21:00:48.471Z,3.30
2019-01-02T21:05:39.504Z,3.77
2019-01-02T21:10:30.408Z,3.90
2019-01-02T21:15:21.324Z,2.70
2019-01-02T21:20:27.239Z,2.90
2019-01-02T21:25:18.909Z,2.83
2019-01-02T21:30:09.812Z,2.77
2019-01-02T21:35:00.775Z,2.47
2019-01-02T21:39:51.634Z,2.10
2019-01-02T21:44:42.629Z,2.95
2019-01-02T21:49:33.637Z,2.80
2019-01-02T21:54:24.573Z,2.00
2019-01-02T21:59:15.580Z,2.63
2019-01-02T22:04:06.607Z,2.27
2019-01-02T22:08:57.617Z,2.80
2019-01-02T22:13:48.576Z,2.97
2019-01-02T22:18:40.284Z,2.10
2019-01-02T22:23:31.399Z,1.93
2019-01-02T22:28:22.428Z,2.17
2019-01-02T22:33:13.454Z,2.87
2019-01-02T22:38:04.360Z,2.80
2019-01-02T22:42:55.286Z,2.43
2019-01-02T22:47:46.198Z,2.03
2019-01-02T22:52:37.882Z,1.83
2019-01-02T22:57:28.875Z,2.47
2019-01-02T23:02:20.643Z,2.10
2019-01-02T23:07:17.779Z,2.30
2019-01-02T23:12:12.470Z,1.83
2019-01-02T23:17:10.036Z,2.07
2019-01-02T23:22:04.148Z,1.67
2019-01-02T23:26:56.054Z,1.80
2019-01-02T23:37:12.853Z,2.40
2019-01-02T23:42:10.752Z,1.40
2019-01-02T23:47:04.193Z,1.60
2019-01-02T23:51:59.163Z,1.30
2019-01-02T23:56:52.972Z,1.40
